Duke Field,(Eglin Af Aux Nr 3) Airport
KEGI : now visible

Airfield :











YOU CAN JOIN US ON...

 
LOGIN :

Register | Disclaimer

   EN    FR    IT 

 









Legend :    VFR   Marginal VFR   IFR   Intensive IFR   Very Intensive IFR
Visi :
Ceiling :
>= 8 km
>= 3000ft
5 to 8 km
1000 to 3000 ft
1500m to 5 km
500 to 1000 ft
800 to 1500m
200 to 500 ft
< 800m
< 200 ft
Symbols :   Thunderstorms  Fog  Heavy snow  Heavy precipitations  Wind > 20 kt






- Airport Elevation : 191 ft


KEGI - Duke Field,(Eglin Af Aux Nr 3)

CURRENT METAR :
  • 280501Z AUTO 20003KT 10SM FEW004 21/18 A3002 RMK AO2 RAE01 SLP165 $

EXPIRED METARs :
  • 280448Z AUTO 19004KT 10SM -RA FEW006 21/18 A3002 RMK AO2 SLP165 $
  • 280440Z AUTO 18004KT 10SM -RA SCT007 21/18 A3002 RMK AO2 SLP165 $
  • 280420Z AUTO 20004KT 8SM +RA BKN009 21/19 A3003 RMK AO2 SLP169 $
  • 280356Z AUTO 15004KT 10SM -RA SCT004 21/19 A3003 RMK AO2 SLP169 P0005 T02140186 $
  • 280256Z AUTO 00000KT 10SM -RA OVC004 21/18 A3003 RMK AO2 SLP169 P0001 60002 T02060178 55000 $
  • 280232Z AUTO 00000KT 10SM -RA BKN004 21/18 A3003 RMK AO2 SLP169 $
  • 280222Z AUTO 00000KT 10SM -RA BKN005 20/18 A3003 RMK AO2 BKN V SCT SLP169 $

Expired Forecast.
KZJX FIR / North America



MET'MAP, your aeronautical weather chart ! - Copyright ORBIFLY December 2007 - Disclaimer

ORBIFLY MET'MAP TEAM :

Programming & Development : Alexandra Zaïnal
Concept & original design : Baudouin d'Aumeries
Assistance for programming : Marc-Olivier Méhu
Technical & hardware support : Manuel Goepfert

Contact : metmap@orbifly.com




SOURCES & CREDITS :

   NOAA       Earth
Advisory